sensor_id;sensor_type;location;lat;lon;timestamp;pressure;altitude;pressure_sealevel;temperature;humidity
73422;BME280;61637;47.760;-122.022;2023-12-20T00:00:01;100575.783;;;8.6;98.0
73422;BME280;61637;47.760;-122.022;2023-12-20T00:02:01;100575.783;;;8.6;98.0
73422;BME280;61637;47.760;-122.022;2023-12-20T00:04:01;100575.783;;;8.6;98.0
73422;BME280;61637;47.760;-122.022;2023-12-20T00:06:01;100575.783;;;8.6;98.0
73422;BME280;61637;47.760;-122.022;2023-12-20T00:08:00;100575.783;;;8.6;98.0
73422;BME280;61637;47.760;-122.022;2023-12-20T00:10:00;100575.783;;;8.6;98.0
73422;BME280;61637;47.760;-122.022;2023-12-20T00:12:01;100575.783;;;8.6;98.0
73422;BME280;61637;47.760;-122.022;2023-12-20T00:14:01;100575.783;;;8.6;98.0
73422;BME280;61637;47.760;-122.022;2023-12-20T00:16:01;100575.783;;;8.6;98.0
73422;BME280;61637;47.760;-122.022;2023-12-20T00:18:01;100575.783;;;8.6;98.0
73422;BME280;61637;47.760;-122.022;2023-12-20T00:20:00;100575.783;;;8.6;98.0
73422;BME280;61637;47.760;-122.022;2023-12-20T00:22:00;100575.783;;;8.6;98.0
73422;BME280;61637;47.760;-122.022;2023-12-20T00:24:00;100575.783;;;8.6;98.0
73422;BME280;61637;47.760;-122.022;2023-12-20T00:26:01;100575.783;;;8.6;98.0
73422;BME280;61637;47.760;-122.022;2023-12-20T00:28:01;100575.783;;;8.5;98.0
73422;BME280;61637;47.760;-122.022;2023-12-20T00:30:01;100575.783;;;8.5;98.0
73422;BME280;61637;47.760;-122.022;2023-12-20T00:32:01;100575.783;;;8.6;98.0
73422;BME280;61637;47.760;-122.022;2023-12-20T00:34:00;100575.783;;;8.5;98.0
73422;BME280;61637;47.760;-122.022;2023-12-20T00:36:00;100575.783;;;8.5;98.0
73422;BME280;61637;47.760;-122.022;2023-12-20T00:38:01;100575.783;;;8.4;98.0
73422;BME280;61637;47.760;-122.022;2023-12-20T00:40:01;100575.783;;;8.4;98.0
73422;BME280;61637;47.760;-122.022;2023-12-20T00:42:01;100575.783;;;8.4;98.0
73422;BME280;61637;47.760;-122.022;2023-12-20T00:44:01;100575.783;;;8.4;98.0
73422;BME280;61637;47.760;-122.022;2023-12-20T00:46:00;100575.783;;;8.4;98.0
73422;BME280;61637;47.760;-122.022;2023-12-20T00:48:00;100575.783;;;8.4;98.0
73422;BME280;61637;47.760;-122.022;2023-12-20T00:50:01;100575.783;;;8.4;98.0
73422;BME280;61637;47.760;-122.022;2023-12-20T00:52:01;100575.783;;;8.3;98.0
73422;BME280;61637;47.760;-122.022;2023-12-20T00:54:00;100575.783;;;8.4;98.0
73422;BME280;61637;47.760;-122.022;2023-12-20T00:56:01;100575.783;;;8.4;98.0
73422;BME280;61637;47.760;-122.022;2023-12-20T00:58:01;100575.783;;;8.4;98.0
73422;BME280;61637;47.760;-122.022;2023-12-20T01:00:01;100575.783;;;8.4;98.0
73422;BME280;61637;47.760;-122.022;2023-12-20T01:02:01;100575.783;;;8.4;98.0
73422;BME280;61637;47.760;-122.022;2023-12-20T01:04:01;100575.783;;;8.4;98.0
73422;BME280;61637;47.760;-122.022;2023-12-20T01:06:01;100575.783;;;8.4;98.0
73422;BME280;61637;47.760;-122.022;2023-12-20T01:08:00;100575.783;;;8.4;98.0
73422;BME280;61637;47.760;-122.022;2023-12-20T01:10:01;100575.783;;;8.4;98.0
73422;BME280;61637;47.760;-122.022;2023-12-20T01:12:01;100575.783;;;8.4;98.0
73422;BME280;61637;47.760;-122.022;2023-12-20T01:14:01;100575.783;;;8.4;98.0
73422;BME280;61637;47.760;-122.022;2023-12-20T01:16:02;100575.783;;;8.4;98.0
73422;BME280;61637;47.760;-122.022;2023-12-20T01:18:01;100575.783;;;8.4;98.0
73422;BME280;61637;47.760;-122.022;2023-12-20T01:20:01;100575.783;;;8.4;98.0
73422;BME280;61637;47.760;-122.022;2023-12-20T01:22:01;100575.783;;;8.4;98.0
73422;BME280;61637;47.760;-122.022;2023-12-20T01:24:01;100575.783;;;8.4;98.0
73422;BME280;61637;47.760;-122.022;2023-12-20T01:26:01;100575.783;;;8.4;98.0
73422;BME280;61637;47.760;-122.022;2023-12-20T01:28:01;100575.783;;;8.4;98.0
73422;BME280;61637;47.760;-122.022;2023-12-20T01:30:01;100575.783;;;8.4;98.0
73422;BME280;61637;47.760;-122.022;2023-12-20T01:32:00;100575.783;;;8.4;98.0
73422;BME280;61637;47.760;-122.022;2023-12-20T01:34:00;100575.783;;;8.4;98.0
73422;BME280;61637;47.760;-122.022;2023-12-20T01:36:01;100575.783;;;8.4;98.0
73422;BME280;61637;47.760;-122.022;2023-12-20T01:38:01;100575.783;;;8.4;98.0
73422;BME280;61637;47.760;-122.022;2023-12-20T01:40:01;100575.783;;;8.4;98.0
73422;BME280;61637;47.760;-122.022;2023-12-20T01:42:01;100575.783;;;8.4;98.0
73422;BME280;61637;47.760;-122.022;2023-12-20T01:44:00;100575.783;;;8.4;98.0
73422;BME280;61637;47.760;-122.022;2023-12-20T01:46:01;100575.783;;;8.4;98.0
73422;BME280;61637;47.760;-122.022;2023-12-20T01:48:01;100575.783;;;8.4;98.0
73422;BME280;61637;47.760;-122.022;2023-12-20T01:50:01;100575.783;;;8.4;98.0
73422;BME280;61637;47.760;-122.022;2023-12-20T01:52:01;100575.783;;;8.4;98.0
73422;BME280;61637;47.760;-122.022;2023-12-20T01:54:01;100575.783;;;8.4;98.0
73422;BME280;61637;47.760;-122.022;2023-12-20T01:56:00;100575.783;;;8.4;98.0
73422;BME280;61637;47.760;-122.022;2023-12-20T01:58:01;100575.783;;;8.4;98.0
73422;BME280;61637;47.760;-122.022;2023-12-20T02:00:01;100575.783;;;8.4;98.0
73422;BME280;61637;47.760;-122.022;2023-12-20T02:02:01;100575.783;;;8.3;98.0
73422;BME280;61637;47.760;-122.022;2023-12-20T02:04:01;100575.783;;;8.4;98.0
73422;BME280;61637;47.760;-122.022;2023-12-20T02:06:01;100575.783;;;8.3;98.0
73422;BME280;61637;47.760;-122.022;2023-12-20T02:08:01;100575.783;;;8.4;98.0
73422;BME280;61637;47.760;-122.022;2023-12-20T02:10:01;100575.783;;;8.3;98.0
73422;BME280;61637;47.760;-122.022;2023-12-20T02:12:00;100575.783;;;8.3;98.0
73422;BME280;61637;47.760;-122.022;2023-12-20T02:14:01;100575.783;;;8.3;98.0
73422;BME280;61637;47.760;-122.022;2023-12-20T02:16:01;100575.783;;;8.3;98.0
73422;BME280;61637;47.760;-122.022;2023-12-20T02:18:01;100575.783;;;8.3;98.0
73422;BME280;61637;47.760;-122.022;2023-12-20T02:20:01;100914.42199999999;;;8.3;98.0
73422;BME280;61637;47.760;-122.022;2023-12-20T02:22:08;100914.42199999999;;;8.3;98.0
73422;BME280;61637;47.760;-122.022;2023-12-20T02:24:01;100914.42199999999;;;8.3;98.0
73422;BME280;61637;47.760;-122.022;2023-12-20T02:26:01;100914.42199999999;;;8.3;98.0
73422;BME280;61637;47.760;-122.022;2023-12-20T02:28:01;100914.42199999999;;;8.3;98.0
73422;BME280;61637;47.760;-122.022;2023-12-20T02:30:01;100914.42199999999;;;8.3;98.0
73422;BME280;61637;47.760;-122.022;2023-12-20T02:32:01;100914.42199999999;;;8.3;98.0
73422;BME280;61637;47.760;-122.022;2023-12-20T02:34:00;100914.42199999999;;;8.3;98.0
73422;BME280;61637;47.760;-122.022;2023-12-20T02:36:00;100914.42199999999;;;8.3;98.0
73422;BME280;61637;47.760;-122.022;2023-12-20T02:38:01;100914.42199999999;;;8.3;98.0
73422;BME280;61637;47.760;-122.022;2023-12-20T02:40:01;100914.42199999999;;;8.3;98.0
73422;BME280;61637;47.760;-122.022;2023-12-20T02:42:00;100914.42199999999;;;8.3;98.0
73422;BME280;61637;47.760;-122.022;2023-12-20T02:44:01;100914.42199999999;;;8.3;98.0
73422;BME280;61637;47.760;-122.022;2023-12-20T02:46:00;100914.42199999999;;;8.3;98.0
73422;BME280;61637;47.760;-122.022;2023-12-20T02:48:01;100914.42199999999;;;8.3;98.0
73422;BME280;61637;47.760;-122.022;2023-12-20T02:50:01;100914.42199999999;;;8.3;98.0
73422;BME280;61637;47.760;-122.022;2023-12-20T02:52:01;100914.42199999999;;;8.3;98.0
73422;BME280;61637;47.760;-122.022;2023-12-20T02:54:00;100914.42199999999;;;8.3;98.0
73422;BME280;61637;47.760;-122.022;2023-12-20T02:56:00;100914.42199999999;;;8.3;98.0
73422;BME280;61637;47.760;-122.022;2023-12-20T02:58:00;100914.42199999999;;;8.3;98.0
73422;BME280;61637;47.760;-122.022;2023-12-20T03:00:01;100914.42199999999;;;8.3;98.0
73422;BME280;61637;47.760;-122.022;2023-12-20T03:02:01;100914.42199999999;;;8.2;98.0
73422;BME280;61637;47.760;-122.022;2023-12-20T03:04:01;100914.42199999999;;;8.2;98.0
73422;BME280;61637;47.760;-122.022;2023-12-20T03:06:01;100914.42199999999;;;8.2;98.0
73422;BME280;61637;47.760;-122.022;2023-12-20T03:08:00;100914.42199999999;;;8.2;98.0
73422;BME280;61637;47.760;-122.022;2023-12-20T03:10:01;100914.42199999999;;;8.2;98.0
73422;BME280;61637;47.760;-122.022;2023-12-20T03:12:00;100914.42199999999;;;8.2;98.0
73422;BME280;61637;47.760;-122.022;2023-12-20T03:14:01;100914.42199999999;;;8.2;98.0
73422;BME280;61637;47.760;-122.022;2023-12-20T03:16:01;100914.42199999999;;;8.2;98.0
73422;BME280;61637;47.760;-122.022;2023-12-20T03:18:01;100914.42199999999;;;8.2;98.0
73422;BME280;61637;47.760;-122.022;2023-12-20T03:20:01;100914.42199999999;;;8.2;98.0
73422;BME280;61637;47.760;-122.022;2023-12-20T03:22:01;100914.42199999999;;;8.1;98.0
73422;BME280;61637;47.760;-122.022;2023-12-20T03:24:00;100914.42199999999;;;8.1;98.0
73422;BME280;61637;47.760;-122.022;2023-12-20T03:26:01;100914.42199999999;;;8.1;98.0
73422;BME280;61637;47.760;-122.022;2023-12-20T03:28:03;100914.42199999999;;;8.1;98.0
73422;BME280;61637;47.760;-122.022;2023-12-20T03:30:00;100914.42199999999;;;8.1;98.0
73422;BME280;61637;47.760;-122.022;2023-12-20T03:32:00;100914.42199999999;;;8.1;98.0
73422;BME280;61637;47.760;-122.022;2023-12-20T03:34:00;100914.42199999999;;;8.1;98.0
73422;BME280;61637;47.760;-122.022;2023-12-20T03:36:00;100914.42199999999;;;8.0;98.0
73422;BME280;61637;47.760;-122.022;2023-12-20T03:38:01;100914.42199999999;;;8.1;98.0
73422;BME280;61637;47.760;-122.022;2023-12-20T03:40:01;100914.42199999999;;;8.1;98.0
73422;BME280;61637;47.760;-122.022;2023-12-20T03:42:00;100914.42199999999;;;8.0;98.0
73422;BME280;61637;47.760;-122.022;2023-12-20T03:44:00;100914.42199999999;;;8.0;98.0
73422;BME280;61637;47.760;-122.022;2023-12-20T03:46:00;100914.42199999999;;;8.0;98.0
73422;BME280;61637;47.760;-122.022;2023-12-20T03:48:00;100914.42199999999;;;8.0;98.0
73422;BME280;61637;47.760;-122.022;2023-12-20T03:50:03;100914.42199999999;;;7.9;98.0
73422;BME280;61637;47.760;-122.022;2023-12-20T03:52:01;100914.42199999999;;;8.0;98.0
73422;BME280;61637;47.760;-122.022;2023-12-20T03:54:01;100914.42199999999;;;8.0;98.0
73422;BME280;61637;47.760;-122.022;2023-12-20T03:56:00;100914.42199999999;;;8.0;98.0
73422;BME280;61637;47.760;-122.022;2023-12-20T03:58:00;100914.42199999999;;;8.0;98.0
73422;BME280;61637;47.760;-122.022;2023-12-20T04:00:01;100914.42199999999;;;8.0;98.0
73422;BME280;61637;47.760;-122.022;2023-12-20T04:02:01;100914.42199999999;;;7.9;98.0
73422;BME280;61637;47.760;-122.022;2023-12-20T04:04:01;100914.42199999999;;;7.9;98.0
73422;BME280;61637;47.760;-122.022;2023-12-20T04:06:01;100914.42199999999;;;7.9;98.0
73422;BME280;61637;47.760;-122.022;2023-12-20T04:08:01;100914.42199999999;;;7.9;98.0
73422;BME280;61637;47.760;-122.022;2023-12-20T04:10:01;100914.42199999999;;;7.9;98.0
73422;BME280;61637;47.760;-122.022;2023-12-20T04:12:00;100914.42199999999;;;7.8;98.0
73422;BME280;61637;47.760;-122.022;2023-12-20T04:14:01;100914.42199999999;;;7.8;98.0
73422;BME280;61637;47.760;-122.022;2023-12-20T04:16:01;100914.42199999999;;;7.8;98.0
73422;BME280;61637;47.760;-122.022;2023-12-20T04:18:01;100914.42199999999;;;7.8;98.0
73422;BME280;61637;47.760;-122.022;2023-12-20T04:20:01;100914.42199999999;;;7.8;98.0
73422;BME280;61637;47.760;-122.022;2023-12-20T04:22:01;100914.42199999999;;;7.8;98.0
73422;BME280;61637;47.760;-122.022;2023-12-20T04:24:01;100914.42199999999;;;7.8;98.0
73422;BME280;61637;47.760;-122.022;2023-12-20T04:26:01;100914.42199999999;;;7.8;98.0
73422;BME280;61637;47.760;-122.022;2023-12-20T04:28:01;100914.42199999999;;;7.8;98.0
73422;BME280;61637;47.760;-122.022;2023-12-20T04:30:01;100914.42199999999;;;7.7;98.0
73422;BME280;61637;47.760;-122.022;2023-12-20T04:32:00;100914.42199999999;;;7.7;98.0
73422;BME280;61637;47.760;-122.022;2023-12-20T04:34:00;100914.42199999999;;;7.7;98.0
73422;BME280;61637;47.760;-122.022;2023-12-20T04:36:01;100914.42199999999;;;7.7;98.0
73422;BME280;61637;47.760;-122.022;2023-12-20T04:38:02;100914.42199999999;;;7.7;98.0
73422;BME280;61637;47.760;-122.022;2023-12-20T04:40:01;100914.42199999999;;;7.7;98.0
73422;BME280;61637;47.760;-122.022;2023-12-20T04:42:01;100914.42199999999;;;7.7;98.0
73422;BME280;61637;47.760;-122.022;2023-12-20T04:44:00;100914.42199999999;;;7.7;98.0
73422;BME280;61637;47.760;-122.022;2023-12-20T04:46:00;100914.42199999999;;;7.7;98.0
73422;BME280;61637;47.760;-122.022;2023-12-20T04:48:01;100914.42199999999;;;7.7;98.0
73422;BME280;61637;47.760;-122.022;2023-12-20T04:50:01;100914.42199999999;;;7.7;98.0
73422;BME280;61637;47.760;-122.022;2023-12-20T04:52:00;100914.42199999999;;;7.7;98.0
73422;BME280;61637;47.760;-122.022;2023-12-20T04:54:01;100914.42199999999;;;7.7;98.0
73422;BME280;61637;47.760;-122.022;2023-12-20T04:56:01;100914.42199999999;;;7.7;98.0
73422;BME280;61637;47.760;-122.022;2023-12-20T04:58:01;100914.42199999999;;;7.7;98.0
73422;BME280;61637;47.760;-122.022;2023-12-20T05:00:01;100914.42199999999;;;7.7;98.0
73422;BME280;61637;47.760;-122.022;2023-12-20T05:02:01;100914.42199999999;;;7.7;98.0
73422;BME280;61637;47.760;-122.022;2023-12-20T05:04:01;100914.42199999999;;;7.7;98.0
73422;BME280;61637;47.760;-122.022;2023-12-20T05:06:01;100914.42199999999;;;7.7;98.0
73422;BME280;61637;47.760;-122.022;2023-12-20T05:08:01;100914.42199999999;;;7.7;98.0
73422;BME280;61637;47.760;-122.022;2023-12-20T05:10:02;100914.42199999999;;;7.7;98.0
73422;BME280;61637;47.760;-122.022;2023-12-20T05:12:01;100914.42199999999;;;7.7;98.0
73422;BME280;61637;47.760;-122.022;2023-12-20T05:14:01;100914.42199999999;;;7.7;98.0
73422;BME280;61637;47.760;-122.022;2023-12-20T05:16:01;100914.42199999999;;;7.7;98.0
73422;BME280;61637;47.760;-122.022;2023-12-20T05:18:00;100914.42199999999;;;7.7;98.0
73422;BME280;61637;47.760;-122.022;2023-12-20T05:20:01;100914.42199999999;;;7.7;98.0
73422;BME280;61637;47.760;-122.022;2023-12-20T05:22:01;100914.42199999999;;;7.7;98.0
73422;BME280;61637;47.760;-122.022;2023-12-20T05:24:01;100914.42199999999;;;7.7;98.0
73422;BME280;61637;47.760;-122.022;2023-12-20T05:26:01;100914.42199999999;;;7.7;98.0
73422;BME280;61637;47.760;-122.022;2023-12-20T05:28:01;100914.42199999999;;;7.7;98.0
73422;BME280;61637;47.760;-122.022;2023-12-20T05:30:00;100914.42199999999;;;7.7;98.0
73422;BME280;61637;47.760;-122.022;2023-12-20T05:32:01;100914.42199999999;;;7.7;98.0
73422;BME280;61637;47.760;-122.022;2023-12-20T05:34:01;100914.42199999999;;;7.8;98.0
73422;BME280;61637;47.760;-122.022;2023-12-20T05:36:01;100914.42199999999;;;7.8;98.0
73422;BME280;61637;47.760;-122.022;2023-12-20T05:38:01;100914.42199999999;;;7.8;98.0
73422;BME280;61637;47.760;-122.022;2023-12-20T05:40:01;100914.42199999999;;;7.8;98.0
73422;BME280;61637;47.760;-122.022;2023-12-20T05:42:00;100914.42199999999;;;7.9;98.0
73422;BME280;61637;47.760;-122.022;2023-12-20T05:44:00;100914.42199999999;;;7.9;98.0
73422;BME280;61637;47.760;-122.022;2023-12-20T05:46:01;100914.42199999999;;;7.9;98.0
73422;BME280;61637;47.760;-122.022;2023-12-20T05:48:01;100914.42199999999;;;7.9;98.0
73422;BME280;61637;47.760;-122.022;2023-12-20T05:50:01;100914.42199999999;;;7.9;98.0
73422;BME280;61637;47.760;-122.022;2023-12-20T05:52:00;100914.42199999999;;;7.9;98.0
73422;BME280;61637;47.760;-122.022;2023-12-20T05:54:00;100914.42199999999;;;7.9;98.0
73422;BME280;61637;47.760;-122.022;2023-12-20T05:56:00;100914.42199999999;;;7.9;98.0
73422;BME280;61637;47.760;-122.022;2023-12-20T05:58:01;100914.42199999999;;;8.0;98.0
73422;BME280;61637;47.760;-122.022;2023-12-20T06:00:01;100914.42199999999;;;8.0;98.0
73422;BME280;61637;47.760;-122.022;2023-12-20T06:02:02;100914.42199999999;;;7.9;98.0
73422;BME280;61637;47.760;-122.022;2023-12-20T06:04:00;100914.42199999999;;;7.9;98.0
73422;BME280;61637;47.760;-122.022;2023-12-20T06:06:04;100914.42199999999;;;7.9;98.0
73422;BME280;61637;47.760;-122.022;2023-12-20T06:08:01;100914.42199999999;;;7.9;98.0
73422;BME280;61637;47.760;-122.022;2023-12-20T06:10:00;100914.42199999999;;;7.9;98.0
73422;BME280;61637;47.760;-122.022;2023-12-20T06:12:01;100914.42199999999;;;7.9;98.0
73422;BME280;61637;47.760;-122.022;2023-12-20T06:14:01;100914.42199999999;;;7.9;98.0
73422;BME280;61637;47.760;-122.022;2023-12-20T06:16:01;100914.42199999999;;;7.8;98.0
73422;BME280;61637;47.760;-122.022;2023-12-20T06:18:01;100914.42199999999;;;7.8;98.0
73422;BME280;61637;47.760;-122.022;2023-12-20T06:20:01;100914.42199999999;;;7.8;98.0
73422;BME280;61637;47.760;-122.022;2023-12-20T06:22:01;100914.42199999999;;;7.8;98.0
73422;BME280;61637;47.760;-122.022;2023-12-20T06:24:01;100914.42199999999;;;7.8;98.0
73422;BME280;61637;47.760;-122.022;2023-12-20T06:26:01;100914.42199999999;;;7.8;98.0
73422;BME280;61637;47.760;-122.022;2023-12-20T06:28:00;100914.42199999999;;;7.8;98.0
73422;BME280;61637;47.760;-122.022;2023-12-20T06:30:01;100914.42199999999;;;7.7;98.0
73422;BME280;61637;47.760;-122.022;2023-12-20T06:32:01;100914.42199999999;;;7.8;98.0
73422;BME280;61637;47.760;-122.022;2023-12-20T06:34:00;100914.42199999999;;;7.7;98.0
73422;BME280;61637;47.760;-122.022;2023-12-20T06:36:01;100914.42199999999;;;7.7;98.0
73422;BME280;61637;47.760;-122.022;2023-12-20T06:38:02;100914.42199999999;;;7.7;98.0
73422;BME280;61637;47.760;-122.022;2023-12-20T06:40:01;100914.42199999999;;;7.7;98.0
73422;BME280;61637;47.760;-122.022;2023-12-20T06:42:00;100914.42199999999;;;7.7;98.0
73422;BME280;61637;47.760;-122.022;2023-12-20T06:44:00;100914.42199999999;;;7.8;98.0
73422;BME280;61637;47.760;-122.022;2023-12-20T06:46:00;100914.42199999999;;;7.8;98.0
73422;BME280;61637;47.760;-122.022;2023-12-20T06:48:01;100914.42199999999;;;7.8;98.0
73422;BME280;61637;47.760;-122.022;2023-12-20T06:50:01;100914.42199999999;;;7.7;98.0
73422;BME280;61637;47.760;-122.022;2023-12-20T06:52:00;100914.42199999999;;;7.8;98.0
73422;BME280;61637;47.760;-122.022;2023-12-20T06:54:01;100914.42199999999;;;7.7;98.0
73422;BME280;61637;47.760;-122.022;2023-12-20T06:56:01;100914.42199999999;;;7.7;98.0
73422;BME280;61637;47.760;-122.022;2023-12-20T06:58:01;100914.42199999999;;;7.7;98.0
73422;BME280;61637;47.760;-122.022;2023-12-20T07:00:01;100914.42199999999;;;7.6;98.0
73422;BME280;61637;47.760;-122.022;2023-12-20T07:02:01;100914.42199999999;;;7.6;98.0
73422;BME280;61637;47.760;-122.022;2023-12-20T07:04:01;100914.42199999999;;;7.6;98.0
73422;BME280;61637;47.760;-122.022;2023-12-20T07:06:00;100914.42199999999;;;7.6;98.0
73422;BME280;61637;47.760;-122.022;2023-12-20T07:08:00;100914.42199999999;;;7.6;98.0
73422;BME280;61637;47.760;-122.022;2023-12-20T07:10:01;100914.42199999999;;;7.5;98.0
73422;BME280;61637;47.760;-122.022;2023-12-20T07:12:01;100914.42199999999;;;7.5;98.0
73422;BME280;61637;47.760;-122.022;2023-12-20T07:14:01;100914.42199999999;;;7.5;98.0
73422;BME280;61637;47.760;-122.022;2023-12-20T07:16:00;100914.42199999999;;;7.5;98.0
73422;BME280;61637;47.760;-122.022;2023-12-20T07:18:00;100914.42199999999;;;7.5;98.0
73422;BME280;61637;47.760;-122.022;2023-12-20T07:20:01;100914.42199999999;;;7.5;98.0
73422;BME280;61637;47.760;-122.022;2023-12-20T07:22:00;100914.42199999999;;;7.5;98.0
73422;BME280;61637;47.760;-122.022;2023-12-20T07:24:01;100914.42199999999;;;7.4;98.0
73422;BME280;61637;47.760;-122.022;2023-12-20T07:26:01;100914.42199999999;;;7.4;98.0
73422;BME280;61637;47.760;-122.022;2023-12-20T07:28:01;100914.42199999999;;;7.4;98.0
73422;BME280;61637;47.760;-122.022;2023-12-20T07:30:01;100914.42199999999;;;7.4;98.0
73422;BME280;61637;47.760;-122.022;2023-12-20T07:32:01;100914.42199999999;;;7.3;98.0
73422;BME280;61637;47.760;-122.022;2023-12-20T07:34:01;100914.42199999999;;;7.4;98.0
73422;BME280;61637;47.760;-122.022;2023-12-20T07:36:01;100914.42199999999;;;7.3;98.0
73422;BME280;61637;47.760;-122.022;2023-12-20T07:38:01;100914.42199999999;;;7.3;98.0
73422;BME280;61637;47.760;-122.022;2023-12-20T07:40:01;100914.42199999999;;;7.3;98.0
73422;BME280;61637;47.760;-122.022;2023-12-20T07:42:00;100914.42199999999;;;7.3;98.0
73422;BME280;61637;47.760;-122.022;2023-12-20T07:44:01;100914.42199999999;;;7.3;98.0
73422;BME280;61637;47.760;-122.022;2023-12-20T07:46:04;100914.42199999999;;;7.3;98.0
73422;BME280;61637;47.760;-122.022;2023-12-20T07:48:01;100914.42199999999;;;7.3;98.0
73422;BME280;61637;47.760;-122.022;2023-12-20T07:50:01;100914.42199999999;;;7.3;98.0
73422;BME280;61637;47.760;-122.022;2023-12-20T07:52:01;100914.42199999999;;;7.3;98.0
73422;BME280;61637;47.760;-122.022;2023-12-20T07:54:01;100914.42199999999;;;7.3;98.0
73422;BME280;61637;47.760;-122.022;2023-12-20T07:56:00;100914.42199999999;;;7.3;98.0
73422;BME280;61637;47.760;-122.022;2023-12-20T07:58:01;100914.42199999999;;;7.2;98.0
73422;BME280;61637;47.760;-122.022;2023-12-20T08:00:01;100914.42199999999;;;7.2;98.0
73422;BME280;61637;47.760;-122.022;2023-12-20T08:02:01;100914.42199999999;;;7.2;98.0
73422;BME280;61637;47.760;-122.022;2023-12-20T08:04:00;100914.42199999999;;;7.2;98.0
73422;BME280;61637;47.760;-122.022;2023-12-20T08:06:01;100914.42199999999;;;7.2;98.0
73422;BME280;61637;47.760;-122.022;2023-12-20T08:08:01;100914.42199999999;;;7.1;98.0
73422;BME280;61637;47.760;-122.022;2023-12-20T08:10:01;100914.42199999999;;;7.1;98.0
73422;BME280;61637;47.760;-122.022;2023-12-20T08:12:01;100914.42199999999;;;7.1;98.0
73422;BME280;61637;47.760;-122.022;2023-12-20T08:14:01;100914.42199999999;;;7.1;98.0
73422;BME280;61637;47.760;-122.022;2023-12-20T08:16:00;100914.42199999999;;;7.0;98.0
73422;BME280;61637;47.760;-122.022;2023-12-20T08:18:00;100914.42199999999;;;7.0;98.0
73422;BME280;61637;47.760;-122.022;2023-12-20T08:20:00;100914.42199999999;;;7.0;98.0
73422;BME280;61637;47.760;-122.022;2023-12-20T08:22:00;100914.42199999999;;;7.0;98.0
73422;BME280;61637;47.760;-122.022;2023-12-20T08:24:01;100914.42199999999;;;7.0;98.0
73422;BME280;61637;47.760;-122.022;2023-12-20T08:26:03;100914.42199999999;;;7.0;98.0
73422;BME280;61637;47.760;-122.022;2023-12-20T08:28:01;100914.42199999999;;;6.9;98.0
73422;BME280;61637;47.760;-122.022;2023-12-20T08:30:00;100914.42199999999;;;7.0;98.0
73422;BME280;61637;47.760;-122.022;2023-12-20T08:32:01;100914.42199999999;;;7.0;98.0
73422;BME280;61637;47.760;-122.022;2023-12-20T08:34:01;100914.42199999999;;;7.0;98.0
73422;BME280;61637;47.760;-122.022;2023-12-20T08:36:01;100914.42199999999;;;7.1;98.0
73422;BME280;61637;47.760;-122.022;2023-12-20T08:38:01;100914.42199999999;;;7.1;98.0
73422;BME280;61637;47.760;-122.022;2023-12-20T08:40:00;100914.42199999999;;;7.1;98.0
73422;BME280;61637;47.760;-122.022;2023-12-20T08:42:01;100914.42199999999;;;7.1;98.0
73422;BME280;61637;47.760;-122.022;2023-12-20T08:44:00;100914.42199999999;;;7.1;98.0
73422;BME280;61637;47.760;-122.022;2023-12-20T08:46:01;100914.42199999999;;;7.1;98.0
73422;BME280;61637;47.760;-122.022;2023-12-20T08:48:01;100914.42199999999;;;7.1;98.0
73422;BME280;61637;47.760;-122.022;2023-12-20T08:50:02;100914.42199999999;;;7.0;98.0
73422;BME280;61637;47.760;-122.022;2023-12-20T08:52:00;100914.42199999999;;;7.0;98.0
73422;BME280;61637;47.760;-122.022;2023-12-20T08:54:00;100914.42199999999;;;7.0;98.0
73422;BME280;61637;47.760;-122.022;2023-12-20T08:56:00;100914.42199999999;;;6.9;98.0
73422;BME280;61637;47.760;-122.022;2023-12-20T08:58:00;100914.42199999999;;;6.9;98.0
73422;BME280;61637;47.760;-122.022;2023-12-20T09:00:01;100914.42199999999;;;6.9;98.0
73422;BME280;61637;47.760;-122.022;2023-12-20T09:02:01;100914.42199999999;;;6.9;98.0
73422;BME280;61637;47.760;-122.022;2023-12-20T09:04:01;100914.42199999999;;;6.9;98.0
73422;BME280;61637;47.760;-122.022;2023-12-20T09:06:01;100914.42199999999;;;6.9;98.0
73422;BME280;61637;47.760;-122.022;2023-12-20T09:08:01;100914.42199999999;;;6.9;98.0
73422;BME280;61637;47.760;-122.022;2023-12-20T09:10:01;100914.42199999999;;;6.9;98.0
73422;BME280;61637;47.760;-122.022;2023-12-20T09:12:01;100914.42199999999;;;6.9;98.0
73422;BME280;61637;47.760;-122.022;2023-12-20T09:14:01;100914.42199999999;;;6.9;98.0
73422;BME280;61637;47.760;-122.022;2023-12-20T09:16:02;100914.42199999999;;;6.8;98.0
73422;BME280;61637;47.760;-122.022;2023-12-20T09:18:01;100914.42199999999;;;6.8;98.0
73422;BME280;61637;47.760;-122.022;2023-12-20T09:20:00;100914.42199999999;;;6.8;98.0
73422;BME280;61637;47.760;-122.022;2023-12-20T09:22:01;100914.42199999999;;;6.8;98.0
73422;BME280;61637;47.760;-122.022;2023-12-20T09:24:03;100914.42199999999;;;6.8;98.0
73422;BME280;61637;47.760;-122.022;2023-12-20T09:26:01;100914.42199999999;;;6.8;98.0
73422;BME280;61637;47.760;-122.022;2023-12-20T09:28:00;100914.42199999999;;;6.7;98.0
73422;BME280;61637;47.760;-122.022;2023-12-20T09:30:00;100914.42199999999;;;6.7;98.0
73422;BME280;61637;47.760;-122.022;2023-12-20T09:32:01;100914.42199999999;;;6.7;98.0